Flight Track Log - Related Links

Times and Time Zones

All times are in EDT time to prevent confusion due to time zone crossing. See the JUS327 flight status page for this flight to view local times or setup timezone preferences in your user account.

Time Position Orientation Groundspeed Altitude Reporting Facility
EDT Latitude Longitude Course Direction KTS MPH feet Rate Location/Type
Tue 10:20:44 PM 42.2619 -89.0553 46° Northeast 187 215 3,900  Level Chicago Center
Tue 10:21:45 PM 42.3203 -89.0000 35° Northeast 248 285 6,200 2,098 Climbing Chicago Center
Tue 10:22:47 PM 42.3869 -88.9317 37° Northeast 292 336 8,200 1,805 Climbing Chicago Center
Tue 10:23:48 PM 42.4692 -88.8528 35° Northeast 311 358 9,900 885 Climbing Chicago Center
Tue 10:24:49 PM 42.5461 -88.7706 38° Northeast 346 398 10,000 195 Climbing Chicago Center
Tue 10:25:00 PM 42.5887 -88.4625 46° Northeast  Level FlightAware Approximate
Tue 10:25:51 PM 42.6275 -88.6997 33° Northeast 348 400 10,300  Level Chicago Center
Tue 10:26:52 PM 42.6728 -88.5808 63° Northeast 372 428 12,200 1,623 Climbing Chicago Center
Tue 10:27:53 PM 42.6822 -88.4258 85° East 404 465 13,600 1,623 Climbing Chicago Center
Tue 10:28:54 PM 42.6797 -88.2694 91° East 413 475 15,500 1,659 Climbing Chicago Center
Tue 10:29:56 PM 42.6831 -88.1153 88° East 410 472 17,000 1,659 Climbing Chicago Center
Tue 10:30:57 PM 42.6875 -87.9517 88° East 426 490 18,900 2,951 Climbing Chicago Center
Tue 10:31:58 PM 42.6925 -87.7592 88° East 437 503 23,000 3,122 Climbing Chicago Center
Tue 10:33:00 PM 42.7017 -87.6011 85° East 424 488 25,300 2,098 Climbing Chicago Center
Tue 10:34:01 PM 42.6981 -87.4369 92° East 432 497 27,300 1,820 Climbing Chicago Center
Tue 10:35:02 PM 42.6992 -87.2650 89° East 450 518 29,000 1,659 Climbing Chicago Center
Tue 10:36:04 PM 42.7086 -87.0900 86° East 462 532 30,700 1,512 Climbing Chicago Center
Tue 10:37:05 PM 42.7106 -86.9114 89° East 473 544 32,100 1,377 Climbing Chicago Center
Tue 10:38:06 PM 42.7108 -86.7281 90° East 485 558 33,500 1,220 Climbing Chicago Center
Tue 10:39:08 PM 42.6914 -86.5478 98° East 488 562 34,600 537 Climbing Chicago Center
Tue 10:40:09 PM 42.6742 -86.3611 97° East 497 572 34,600 -1,033 Level Chicago Center
Tue 10:41:10 PM 42.6822 -86.1281 87° East 518 596 32,500 -2,066 Descending Chicago Center
Tue 10:42:11 PM 42.6956 -85.9378 84° East 517 595 30,400 -2,049 Descending Chicago Center
Tue 10:43:13 PM 42.6975 -85.7522 89° East 504 580 28,300 -2,098 Descending Chicago Center
Tue 10:44:14 PM 42.6978 -85.5728 90° East 487 560 26,100 -2,213 Descending Chicago Center
Tue 10:45:15 PM 42.7047 -85.4069 87° East 452 520 23,800 -2,244 Descending Chicago Center
Tue 10:46:17 PM 42.7056 -85.2400 90° East 444 511 21,500 -1,366 Descending Chicago Center
Tue 10:47:18 PM 42.7064 -85.0789 90° East 433 498 21,000 -246 Descending Chicago Center
Tue 10:48:19 PM 42.7100 -84.8842 88° East 430 495 21,000 -885 Level Chicago Center
Tue 10:49:20 PM 42.7122 -84.7228 89° East 429 494 19,200 -2,195 Descending Chicago Center
Tue 10:50:22 PM 42.6989 -84.5711 97° East 409 471 16,500 -2,682 Descending Chicago Center
Tue 10:51:32 PM 42.6419 -84.4250 118° Southeast 389 448 13,300 -2,661 Descending Cleveland Center
Tue 10:52:17 PM 42.5908 -84.3344 127° Southeast 360 414 11,400 -2,000 Descending Cleveland Center
Tue 10:52:32 PM 42.5811 -84.3169 127° Southeast 377 434 11,300 -880 Descending Cleveland Center
Tue 10:53:32 PM 42.5236 -84.2178 128° Southeast 357 411 10,300 -645 Descending Cleveland Center
Tue 10:54:33 PM 42.4578 -84.1239 134° Southeast 344 396 10,000 -600 Descending Cleveland Center
Tue 10:55:32 PM 42.4019 -84.0392 132° Southeast 324 373 9,100 -1,361 Descending Cleveland Center
Tue 10:56:32 PM 42.3503 -83.9519 129° Southeast 311 358 7,300 -1,800 Descending Cleveland Center
Tue 10:57:32 PM 42.2942 -83.8761 135° Southeast 297 342 5,500 -1,650 Descending Cleveland Center
Tue 10:58:32 PM 42.2314 -83.8167 145° Southeast 286 329 4,000 -1,230 Descending Cleveland Center
Tue 10:59:34 PM 42.1725 -83.7603 145° Southeast 210 242 3,000 -492 Descending Cleveland Center
Tue 11:00:34 PM 42.1342 -83.7136 138° Southeast 181 208 3,000 -99 Level Cleveland Center
Tue 11:01:35 PM 42.1611 -83.6422 63° Northeast 204 235 2,800 -537 Descending Cleveland Center
Tue 11:02:48 PM 42.1914 -83.5989 47° Northeast 114 131 1,800 -699 Descending Cleveland Center
Tue 11:04:01 PM 42.2194 -83.5581 47° Northeast 118 136 1,100 -575 Descending Cleveland Center

Login

Don't have an account? Register now (free) for customized features, flight alerts, and more!